Riggston, Illinois
Current Conditions -  °F | °C
As of 10:35 PM on Tuesday 21 Oct 2014 (Local Time) from KIJX Reporting Station
Clear Clear  
Wind Chill: 41°   Ceiling: Unl
Heat Index: 46°   Visibility: 10mi
Dew Point: 41°   Wind: 9mph
Humidity: 83%   Direction: 90°E
Pressure: 30.23"   Gusts: NA
Location:  39.6195°N, 90.4337°W
Report Text: KIJX 220335Z AUTO 09008KT 10SM CLR 08/05 A3023 RMK AO2 T00780050
Loading
Personal Weather Stations






























Interactive Weather Map
Tropical Storm Tracking
New forecast layout! Learn more

10-Day Weather Forecast

Advertisements
Track Severe Weather on mobile